»·PEaware :: N171MA KSQL-KTVL

N171MA :: KSQL-KTVL

FLIGHT INFORMATION

Flight Status: Arrived
Operator: Privately registered:
United States
More flights under this callsign
Pilot: Tim M. (868)
Aircraft: Unknown
(P28U)
More flights by this aircraft type
Origin: KSQL San Carlos
United States
Destination: KTVL Lake Tahoe
United States
More flights between these airports :: More routes between these airports
Route: +OAK V6 SWR
File this flight plan on PilotEdge
Remarks:
Altitude:
(Current/Filed)
13,000ft
Speed:
(Current/Filed)
161kts
Departed: 23-Nov-20 02:11 PM
Arrived: 23-Nov-20 03:35 PM
Distance/Time
Traveled:
135nm/1:24
Distance/Time
To Go:
Arrived

Flight Plot

Page will automatically refresh every two minutes.

Flight plan parsing failed; only flown route is shown


Map Options




Map Legend


Flown Route
Filed Route
Departure Airport
Arrival Airport
Navaid (VOR, NDB)
Fix

Horizontal Profiles

Position Reports

Time Latitude Longitude Heading Altitude Ground
Speed
23-Nov-20 13:31 37.511119 -122.250556 317 8ft 0kts
23-Nov-20 13:32 37.511119 -122.250556 317 8ft 0kts
23-Nov-20 13:33 37.511119 -122.250556 317 8ft 0kts
23-Nov-20 13:34 37.511119 -122.250556 317 8ft 0kts
23-Nov-20 13:35 37.511119 -122.250556 317 8ft 0kts
23-Nov-20 13:36 37.511119 -122.250556 317 8ft 0kts
23-Nov-20 13:37 37.511119 -122.250556 317 8ft 0kts
23-Nov-20 13:38 37.511119 -122.250556 317 8ft 0kts
23-Nov-20 13:39 37.511119 -122.250556 317 8ft 0kts
23-Nov-20 13:40 37.511119 -122.250556 317 8ft 0kts
23-Nov-20 13:41 37.511119 -122.250556 317 8ft 0kts
23-Nov-20 13:42 37.511119 -122.250556 317 8ft 0kts
23-Nov-20 13:43 37.511119 -122.250556 317 8ft 0kts
23-Nov-20 13:44 37.511119 -122.250556 317 8ft 0kts
23-Nov-20 13:45 37.510814 -122.249327 140 8ft 13kts
23-Nov-20 13:46 37.508933 -122.247087 56 8ft 0kts
23-Nov-20 13:47 37.508933 -122.247087 56 8ft 0kts
23-Nov-20 13:48 37.508935 -122.247084 57 8ft 0kts
23-Nov-20 13:49 37.508935 -122.247084 57 8ft 0kts
23-Nov-20 13:50 37.508935 -122.247084 57 8ft 0kts
23-Nov-20 13:51 37.508935 -122.247084 57 8ft 0kts
23-Nov-20 13:52 37.508935 -122.247084 57 8ft 0kts
23-Nov-20 13:53 37.508935 -122.247084 57 8ft 0kts
23-Nov-20 13:54 37.508935 -122.247084 57 8ft 0kts
23-Nov-20 13:55 37.508935 -122.247084 57 8ft 0kts
23-Nov-20 13:56 37.508935 -122.247084 57 8ft 0kts
23-Nov-20 13:57 37.508935 -122.247084 57 8ft 0kts
23-Nov-20 13:58 37.508935 -122.247084 57 8ft 0kts
23-Nov-20 13:59 37.508935 -122.247084 57 8ft 0kts
23-Nov-20 14:00 37.508935 -122.247084 57 8ft 0kts
23-Nov-20 14:01 37.508935 -122.247084 57 8ft 0kts
23-Nov-20 14:02 37.508935 -122.247084 57 8ft 0kts
23-Nov-20 14:03 37.508935 -122.247084 57 8ft 0kts
23-Nov-20 14:04 37.508935 -122.247084 57 8ft 0kts
23-Nov-20 14:05 37.508935 -122.247084 57 8ft 0kts
23-Nov-20 14:06 37.508935 -122.247084 57 8ft 0kts
23-Nov-20 14:07 37.508935 -122.247084 57 8ft 0kts
23-Nov-20 14:08 37.508974 -122.247008 57 8ft 0kts
23-Nov-20 14:09 37.509041 -122.246877 57 8ft 4kts
23-Nov-20 14:10 37.519457 -122.258166 318 366ft 90kts
23-Nov-20 14:11 37.540585 -122.251896 48 1565ft 96kts
23-Nov-20 14:12 37.551025 -122.225377 62 2491ft 89kts
23-Nov-20 14:13 37.564975 -122.197885 42 3190ft 96kts
23-Nov-20 14:14 37.586952 -122.179393 21 3921ft 91kts
23-Nov-20 14:15 37.612999 -122.172532 11 4607ft 95kts
23-Nov-20 14:16 37.637700 -122.166397 10 5407ft 88kts
23-Nov-20 14:17 37.662771 -122.156921 18 6032ft 101kts
23-Nov-20 14:18 37.694030 -122.145109 13 6426ft 105kts
23-Nov-20 14:19 37.720314 -122.135924 15 7222ft 99kts
23-Nov-20 14:20 37.746283 -122.125654 17 7973ft 96kts
23-Nov-20 14:21 37.771635 -122.113719 11 8658ft 97kts
23-Nov-20 14:22 37.797655 -122.104554 12 9436ft 99kts
23-Nov-20 14:23 37.822944 -122.091594 11 10174ft 95kts
23-Nov-20 14:24 37.848955 -122.084406 4 10864ft 93kts
23-Nov-20 14:25 37.872593 -122.070418 26 11581ft 103kts
23-Nov-20 14:26 37.895022 -122.048901 17 12287ft 101kts
23-Nov-20 14:27 37.917050 -122.027856 27 13029ft 109kts
23-Nov-20 14:28 37.944321 -121.999242 29 12884ft 142kts
23-Nov-20 14:29 37.972608 -121.966581 31 13026ft 136kts
23-Nov-20 14:30 38.003055 -121.941641 18 13063ft 134kts
23-Nov-20 14:31 38.034212 -121.916054 26 13135ft 132kts
23-Nov-20 14:32 38.059277 -121.880862 25 13145ft 130kts
23-Nov-20 14:33 38.087954 -121.852254 25 13092ft 130kts
23-Nov-20 14:34 38.116658 -121.824357 25 13100ft 130kts
23-Nov-20 14:35 38.145508 -121.796310 25 13099ft 132kts
23-Nov-20 14:36 38.173430 -121.768614 24 13366ft 121kts
23-Nov-20 14:37 38.201730 -121.740191 26 13204ft 139kts
23-Nov-20 14:38 38.233660 -121.714074 21 13010ft 135kts
23-Nov-20 14:39 38.264879 -121.690387 18 13048ft 128kts
23-Nov-20 14:40 38.295611 -121.666726 21 13030ft 130kts
23-Nov-20 14:41 38.326492 -121.643038 16 13006ft 128kts
23-Nov-20 14:42 38.357743 -121.620781 20 13022ft 127kts
23-Nov-20 14:43 38.388614 -121.597909 22 13012ft 129kts
23-Nov-20 14:44 38.419454 -121.573980 19 12976ft 130kts
23-Nov-20 14:45 38.448938 -121.547623 43 13056ft 137kts
23-Nov-20 14:46 38.471043 -121.507479 37 13080ft 137kts
23-Nov-20 14:47 38.494664 -121.467862 38 13104ft 133kts
23-Nov-20 14:48 38.517672 -121.428354 41 13071ft 137kts
23-Nov-20 14:49 38.540359 -121.387069 41 12993ft 139kts
23-Nov-20 14:50 38.561912 -121.345338 46 13040ft 138kts
23-Nov-20 14:51 38.583833 -121.304206 39 13005ft 137kts
23-Nov-20 14:52 38.608600 -121.267583 41 13073ft 135kts
23-Nov-20 14:53 38.631089 -121.226953 43 12988ft 143kts
23-Nov-20 14:54 38.654425 -121.186063 44 12984ft 138kts
23-Nov-20 14:55 38.678838 -121.151849 30 13315ft 119kts
23-Nov-20 14:56 38.700455 -121.110874 43 13097ft 149kts
23-Nov-20 14:57 38.724689 -121.069262 40 13018ft 141kts
23-Nov-20 14:58 38.748660 -121.029948 37 13031ft 139kts
23-Nov-20 15:00 38.772472 -120.990827 40 13151ft 133kts
23-Nov-20 15:01 38.795539 -120.950276 39 13028ft 141kts
23-Nov-20 15:02 38.820737 -120.912388 37 13012ft 141kts
23-Nov-20 15:03 38.844416 -120.871978 48 13069ft 141kts
23-Nov-20 15:04 38.864250 -120.829800 46 13203ft 143kts
23-Nov-20 15:05 38.885247 -120.784857 49 13107ft 145kts
23-Nov-20 15:06 38.910607 -120.746722 40 13041ft 142kts
23-Nov-20 15:07 38.934058 -120.708406 37 13258ft 133kts
23-Nov-20 15:08 38.958086 -120.667231 43 13043ft 145kts
23-Nov-20 15:09 38.980293 -120.623402 42 13046ft 138kts
23-Nov-20 15:10 39.005691 -120.586994 39 13148ft 138kts
23-Nov-20 15:11 39.030323 -120.546373 41 13039ft 145kts
23-Nov-20 15:12 39.054170 -120.504611 42 13062ft 143kts
23-Nov-20 15:13 39.077798 -120.462792 47 13031ft 147kts
23-Nov-20 15:14 39.101293 -120.420835 41 13036ft 144kts
23-Nov-20 15:15 39.123292 -120.376558 44 13041ft 146kts
23-Nov-20 15:16 39.147295 -120.334204 44 13028ft 146kts
23-Nov-20 15:16 39.164973 -120.295974 46 13048ft 145kts
23-Nov-20 15:18 39.184735 -120.239638 66 13076ft 156kts
23-Nov-20 15:18 39.195083 -120.194779 56 12854ft 156kts
23-Nov-20 15:19 39.207564 -120.139743 68 12375ft 157kts
23-Nov-20 15:20 39.219433 -120.087926 67 12497ft 150kts
23-Nov-20 15:21 39.230556 -120.035407 67 12372ft 154kts
23-Nov-20 15:22 39.242368 -119.985504 61 12470ft 144kts
23-Nov-20 15:23 39.229227 -119.938852 157 12238ft 154kts
23-Nov-20 15:24 39.187277 -119.936397 193 11288ft 153kts
23-Nov-20 15:25 39.147426 -119.950407 209 10289ft 150kts
23-Nov-20 15:26 39.106894 -119.958341 182 9922ft 146kts
23-Nov-20 15:27 39.073704 -119.960366 189 9534ft 121kts
23-Nov-20 15:28 39.040294 -119.967948 191 8999ft 116kts
23-Nov-20 15:29 39.008884 -119.972028 186 8343ft 113kts
23-Nov-20 15:30 38.976160 -119.981718 183 7251ft 119kts
23-Nov-20 15:31 38.946965 -119.978435 192 7300ft 104kts
23-Nov-20 15:32 38.921673 -119.987100 193 6663ft 91kts
23-Nov-20 15:33 38.898044 -119.994094 194 6259ft 52kts
23-Nov-20 15:34 38.892345 -119.996881 270 6263ft 11kts
23-Nov-20 15:35 38.894413 -119.997156 12 6263ft 9kts
23-Nov-20 15:36 38.894811 -119.997318 282 6265ft 0kts
23-Nov-20 15:37 38.894811 -119.997318 282 6265ft 0kts
23-Nov-20 15:38 38.894811 -119.997318 282 6265ft 0kts
23-Nov-20 15:39 38.894811 -119.997318 282 6265ft 0kts
23-Nov-20 15:40 38.894811 -119.997318 282 6265ft 0kts
23-Nov-20 15:41 38.894811 -119.997318 282 6265ft 0kts
23-Nov-20 15:42 38.894811 -119.997318 282 6265ft 0kts
23-Nov-20 15:43 38.894811 -119.997318 282 6265ft 0kts
23-Nov-20 15:44 38.894811 -119.997318 282 6265ft 0kts

Navigation Log

Ident Type
Flight plan parsing failed, navigation log unavailable